createdAt,value
2023-02-07T00:01:00.646Z,73.35
2023-02-07T00:04:12.277Z,73.57
2023-02-07T00:07:14.911Z,73.73
2023-02-07T00:10:17.564Z,73.70
2023-02-07T00:13:20.342Z,73.97
2023-02-07T00:16:25.612Z,73.98
2023-02-07T00:19:28.573Z,74.43
2023-02-07T00:22:31.638Z,74.45
2023-02-07T00:25:34.439Z,75.06
2023-02-07T00:28:37.361Z,74.94
2023-02-07T00:31:40.556Z,74.97
2023-02-07T00:34:46.103Z,75.23
2023-02-07T00:37:50.521Z,75.26
2023-02-07T00:40:53.242Z,75.46
2023-02-07T00:43:56.061Z,75.19
2023-02-07T00:46:59.477Z,75.43
2023-02-07T00:50:02.339Z,75.05
2023-02-07T00:53:05.520Z,74.94
2023-02-07T00:56:08.825Z,75.14
2023-02-07T00:59:14.200Z,74.67
2023-02-07T01:02:16.936Z,74.56
2023-02-07T01:05:19.632Z,74.78
2023-02-07T01:08:22.319Z,74.61
2023-02-07T01:11:25.422Z,74.62
2023-02-07T01:14:28.124Z,74.36
2023-02-07T01:17:30.932Z,74.52
2023-02-07T01:20:33.676Z,74.37
2023-02-07T01:23:36.296Z,74.55
2023-02-07T01:26:39.736Z,74.17
2023-02-07T01:29:43.077Z,73.86
2023-02-07T01:32:45.769Z,74.16
2023-02-07T01:35:50.724Z,74.02
2023-02-07T01:38:54.072Z,74.09
2023-02-07T01:41:56.827Z,74.19
2023-02-07T01:45:05.308Z,73.97
2023-02-07T01:48:16.600Z,74.24
2023-02-07T01:51:20.579Z,74.14
2023-02-07T01:54:23.450Z,74.26
2023-02-07T01:57:27.569Z,74.24
2023-02-07T02:00:30.748Z,74.53
2023-02-07T02:03:35.722Z,74.62
2023-02-07T02:06:40.285Z,74.87
2023-02-07T02:09:46.029Z,74.84
2023-02-07T02:13:03.170Z,74.94
2023-02-07T02:16:07.863Z,75.22
2023-02-07T02:19:29.717Z,75.36
2023-02-07T02:22:35.208Z,75.20
2023-02-07T02:25:46.455Z,75.47
2023-02-07T02:29:18.713Z,75.72
2023-02-07T02:32:39.898Z,75.80
2023-02-07T02:35:47.894Z,75.57
2023-02-07T02:39:11.972Z,76.01
2023-02-07T02:42:16.295Z,76.07
2023-02-07T02:45:23.096Z,76.35
2023-02-07T02:48:30.200Z,75.82
2023-02-07T02:51:32.861Z,75.78
2023-02-07T02:54:36.980Z,75.57
2023-02-07T02:57:57.282Z,75.69
2023-02-07T03:01:38.777Z,75.62
2023-02-07T03:04:44.204Z,75.87
2023-02-07T03:08:03.557Z,75.70
2023-02-07T03:11:14.466Z,75.50
2023-02-07T03:14:26.841Z,75.54
2023-02-07T03:17:49.437Z,75.63
2023-02-07T03:20:56.283Z,75.42
2023-02-07T03:24:00.812Z,75.27
2023-02-07T03:27:06.338Z,75.50
2023-02-07T03:30:11.800Z,75.67
2023-02-07T03:33:14.853Z,75.66
2023-02-07T03:36:32.197Z,75.43
2023-02-07T03:39:35.030Z,75.60
2023-02-07T03:42:40.198Z,75.53
2023-02-07T03:45:42.961Z,75.41
2023-02-07T03:48:45.579Z,75.34
2023-02-07T03:51:48.819Z,75.39
2023-02-07T03:54:51.459Z,75.25
2023-02-07T03:57:54.169Z,75.34
2023-02-07T04:00:56.997Z,75.33
2023-02-07T04:03:59.820Z,75.79
2023-02-07T04:07:02.592Z,75.50
2023-02-07T04:10:06.093Z,75.49
2023-02-07T04:13:08.768Z,75.86
2023-02-07T04:16:13.462Z,76.04
2023-02-07T04:19:16.612Z,76.01
2023-02-07T04:22:19.638Z,75.83
2023-02-07T04:25:24.560Z,75.65
2023-02-07T04:28:27.367Z,75.74
2023-02-07T04:31:30.100Z,75.82
2023-02-07T04:34:32.770Z,75.89
2023-02-07T04:37:35.559Z,76.12
2023-02-07T04:40:39.055Z,76.01
2023-02-07T04:43:42.441Z,75.88
2023-02-07T04:46:45.096Z,75.91
2023-02-07T04:49:47.996Z,76.33
2023-02-07T04:52:50.680Z,76.01
2023-02-07T04:55:56.629Z,75.87
2023-02-07T04:58:59.392Z,75.86
2023-02-07T05:02:02.008Z,76.15
2023-02-07T05:05:04.826Z,75.90
2023-02-07T05:08:07.664Z,76.02
2023-02-07T05:11:10.823Z,75.99
2023-02-07T05:14:16.108Z,76.02
2023-02-07T05:17:18.727Z,75.95
2023-02-07T05:20:21.363Z,76.02
2023-02-07T05:23:24.424Z,76.01
2023-02-07T05:26:27.145Z,76.23
2023-02-07T05:29:29.796Z,76.37
2023-02-07T05:32:51.065Z,76.26
2023-02-07T05:35:53.787Z,76.31
2023-02-07T05:38:56.568Z,76.35
2023-02-07T05:41:59.221Z,76.09
2023-02-07T05:45:01.885Z,76.06
2023-02-07T05:48:04.629Z,76.08
2023-02-07T05:51:07.314Z,76.03
2023-02-07T05:54:09.926Z,76.20
2023-02-07T05:57:12.592Z,76.23
2023-02-07T06:00:16.815Z,76.21
2023-02-07T06:03:20.737Z,75.99
2023-02-07T06:06:23.376Z,75.96
2023-02-07T06:09:25.988Z,76.04
2023-02-07T06:12:28.702Z,75.92
2023-02-07T06:15:31.372Z,75.95
2023-02-07T06:18:34.005Z,76.13
2023-02-07T06:21:46.025Z,76.18
2023-02-07T06:24:49.540Z,76.16
2023-02-07T06:27:52.246Z,75.88
2023-02-07T06:30:54.974Z,76.03
2023-02-07T06:33:58.837Z,75.91
2023-02-07T06:37:01.576Z,75.97
2023-02-07T06:40:06.677Z,75.92
2023-02-07T06:43:09.901Z,75.82
2023-02-07T06:46:12.691Z,75.82
2023-02-07T06:49:16.633Z,75.91
2023-02-07T06:52:20.159Z,75.79
2023-02-07T06:55:22.764Z,75.78
2023-02-07T06:58:25.829Z,75.72
2023-02-07T07:01:28.575Z,75.82
2023-02-07T07:04:33.740Z,75.94
2023-02-07T07:07:36.630Z,75.79
2023-02-07T07:10:39.290Z,75.61
2023-02-07T07:13:42.057Z,75.52
2023-02-07T07:16:44.739Z,75.79
2023-02-07T07:19:47.429Z,75.90
2023-02-07T07:22:50.131Z,75.75
2023-02-07T07:25:52.899Z,75.76
2023-02-07T07:28:58.389Z,75.97
2023-02-07T07:32:01.141Z,75.87
2023-02-07T07:35:07.280Z,75.84
2023-02-07T07:38:09.904Z,75.76
2023-02-07T07:41:12.538Z,75.70
2023-02-07T07:44:15.212Z,75.76
2023-02-07T07:47:19.192Z,75.83
2023-02-07T07:50:21.859Z,75.68
2023-02-07T07:53:24.903Z,75.88
2023-02-07T07:56:29.604Z,75.87
2023-02-07T07:59:32.268Z,75.66
2023-02-07T08:02:34.955Z,75.70
2023-02-07T08:05:37.821Z,75.47
2023-02-07T08:08:40.680Z,75.27
2023-02-07T08:11:43.410Z,75.73
2023-02-07T08:14:46.163Z,75.63
2023-02-07T08:17:51.273Z,75.37
2023-02-07T08:20:56.517Z,75.51
2023-02-07T08:23:59.312Z,75.52
2023-02-07T08:27:02.680Z,75.15
2023-02-07T08:30:06.845Z,75.28
2023-02-07T08:33:09.503Z,75.35
2023-02-07T08:36:13.026Z,75.44
2023-02-07T08:39:19.066Z,75.41
2023-02-07T08:42:22.431Z,75.32
2023-02-07T08:45:25.587Z,75.27
2023-02-07T08:48:28.469Z,75.20
2023-02-07T08:51:31.109Z,75.21
2023-02-07T08:54:52.360Z,75.42
2023-02-07T08:57:55.123Z,75.49
2023-02-07T09:00:57.810Z,75.57
2023-02-07T09:04:00.443Z,75.29
2023-02-07T09:07:03.094Z,75.08
2023-02-07T09:10:07.047Z,75.40
2023-02-07T09:13:09.814Z,75.42
2023-02-07T09:16:20.800Z,75.35
2023-02-07T09:19:23.593Z,75.32
2023-02-07T09:22:26.528Z,75.53
2023-02-07T09:25:29.148Z,75.67
2023-02-07T09:28:31.983Z,75.75
2023-02-07T09:31:34.861Z,75.79
2023-02-07T09:34:38.035Z,75.89
2023-02-07T09:37:49.409Z,75.96
2023-02-07T09:40:53.659Z,76.15
2023-02-07T09:44:14.307Z,76.01
2023-02-07T09:47:22.451Z,75.88
2023-02-07T09:50:34.552Z,76.13
2023-02-07T09:53:45.004Z,76.22
2023-02-07T09:56:49.872Z,75.82
2023-02-07T10:00:02.746Z,75.20
2023-02-07T10:03:21.133Z,75.15
2023-02-07T10:06:27.326Z,74.97
2023-02-07T10:09:36.576Z,74.71
2023-02-07T10:12:39.201Z,74.59
2023-02-07T10:15:41.805Z,74.96
2023-02-07T10:18:47.611Z,74.06
2023-02-07T10:21:54.787Z,73.50
2023-02-07T10:25:16.382Z,73.26
2023-02-07T10:28:19.085Z,73.24
2023-02-07T10:31:23.937Z,73.39
2023-02-07T10:34:35.795Z,72.68
2023-02-07T10:37:39.275Z,72.70
2023-02-07T10:40:48.767Z,72.49
2023-02-07T10:43:53.115Z,72.52
2023-02-07T10:46:58.615Z,72.70
2023-02-07T10:50:04.048Z,72.61
2023-02-07T10:53:06.717Z,72.55
2023-02-07T10:56:20.094Z,72.59
2023-02-07T10:59:39.186Z,72.35
2023-02-07T11:02:49.741Z,72.19
2023-02-07T11:05:57.295Z,72.10
2023-02-07T11:09:13.873Z,71.47
2023-02-07T11:12:23.573Z,70.89
2023-02-07T11:15:46.140Z,71.11
2023-02-07T11:18:59.997Z,71.62
2023-02-07T11:22:19.153Z,71.64
2023-02-07T11:25:29.711Z,71.50
2023-02-07T11:28:34.670Z,71.70
2023-02-07T11:31:39.425Z,71.18
2023-02-07T11:34:55.098Z,71.25
2023-02-07T11:38:03.670Z,71.50
2023-02-07T11:41:16.546Z,71.47
2023-02-07T11:44:19.229Z,71.22
2023-02-07T11:47:24.407Z,71.06
2023-02-07T11:50:41.085Z,70.79
2023-02-07T11:53:54.054Z,70.45
2023-02-07T11:57:16.676Z,70.44
2023-02-07T12:00:23.836Z,70.69
2023-02-07T12:03:27.871Z,70.47
2023-02-07T12:06:33.352Z,70.60
2023-02-07T12:09:41.023Z,70.86
2023-02-07T12:12:46.779Z,70.86
2023-02-07T12:15:52.904Z,71.20
2023-02-07T12:19:14.396Z,71.24
2023-02-07T12:22:20.126Z,71.50
2023-02-07T12:25:24.849Z,71.46
2023-02-07T12:28:31.841Z,71.35
2023-02-07T12:31:42.526Z,70.93
2023-02-07T12:34:49.724Z,71.32
2023-02-07T12:38:01.680Z,71.18
2023-02-07T12:41:17.054Z,70.98
2023-02-07T12:44:25.632Z,70.74
2023-02-07T12:47:34.013Z,70.20
2023-02-07T12:51:02.645Z,70.18
2023-02-07T12:54:17.452Z,70.20
2023-02-07T12:57:23.000Z,70.52
2023-02-07T13:00:42.619Z,70.52
2023-02-07T13:04:03.976Z,70.11
2023-02-07T13:07:06.570Z,70.65
2023-02-07T13:10:15.273Z,70.93
2023-02-07T13:13:24.810Z,70.85
2023-02-07T13:16:38.604Z,71.04
2023-02-07T13:20:07.677Z,71.27
2023-02-07T13:23:19.137Z,71.33
2023-02-07T13:26:26.627Z,71.40
2023-02-07T13:29:31.828Z,71.55
2023-02-07T13:32:34.549Z,71.59
2023-02-07T13:35:52.447Z,71.36
2023-02-07T13:39:01.042Z,71.16
2023-02-07T13:42:17.927Z,70.96
2023-02-07T13:45:28.795Z,70.73
2023-02-07T13:48:35.360Z,70.83
2023-02-07T13:51:50.675Z,71.00
2023-02-07T13:54:56.337Z,71.14
2023-02-07T13:58:17.618Z,71.11
2023-02-07T14:01:24.891Z,71.21
2023-02-07T14:04:45.660Z,71.40
2023-02-07T14:07:55.521Z,71.46
2023-02-07T14:10:59.218Z,71.53
2023-02-07T14:14:25.621Z,71.63
2023-02-07T14:17:29.724Z,71.88
2023-02-07T14:20:40.605Z,71.95
2023-02-07T14:24:02.513Z,72.01
2023-02-07T14:27:05.929Z,72.25
2023-02-07T14:30:18.996Z,72.41
2023-02-07T14:33:22.491Z,72.51
2023-02-07T14:36:26.108Z,72.63
2023-02-07T14:39:33.058Z,72.71
2023-02-07T14:42:36.494Z,72.80
2023-02-07T14:45:40.746Z,73.01
2023-02-07T14:48:43.434Z,73.21
2023-02-07T14:51:59.658Z,73.16
2023-02-07T14:55:08.835Z,73.00
2023-02-07T14:58:37.693Z,73.09
2023-02-07T15:01:40.411Z,73.16
2023-02-07T15:04:43.742Z,73.32
2023-02-07T15:07:47.473Z,73.29
2023-02-07T15:10:53.659Z,72.92
2023-02-07T15:13:59.778Z,72.79
2023-02-07T15:17:03.565Z,72.50
2023-02-07T15:20:06.646Z,72.60
2023-02-07T15:23:16.341Z,72.70
2023-02-07T15:26:20.135Z,72.85
2023-02-07T15:29:25.546Z,73.01
2023-02-07T15:32:31.185Z,74.48
2023-02-07T15:35:39.482Z,73.86
2023-02-07T15:38:42.442Z,73.36
2023-02-07T15:41:45.956Z,73.43
2023-02-07T15:44:53.199Z,73.37
2023-02-07T15:48:03.128Z,73.61
2023-02-07T15:51:06.136Z,73.70
2023-02-07T15:54:15.643Z,73.76
2023-02-07T15:57:30.789Z,73.86
2023-02-07T16:00:40.489Z,73.77
2023-02-07T16:03:44.917Z,73.86
2023-02-07T16:07:23.284Z,74.00
2023-02-07T16:10:35.962Z,74.14
2023-02-07T16:13:58.858Z,74.57
2023-02-07T16:17:01.856Z,74.58
2023-02-07T16:20:04.925Z,74.83
2023-02-07T16:23:09.443Z,74.84
2023-02-07T16:26:14.345Z,74.80
2023-02-07T16:29:23.307Z,74.78
2023-02-07T16:32:28.134Z,74.78
2023-02-07T16:35:30.798Z,74.71
2023-02-07T16:38:34.652Z,74.87
2023-02-07T16:41:41.535Z,74.27
2023-02-07T16:44:45.447Z,73.99
2023-02-07T16:47:48.330Z,73.84
2023-02-07T16:50:50.994Z,73.54
2023-02-07T16:54:18.088Z,73.49
2023-02-07T16:57:27.410Z,73.75
2023-02-07T17:00:32.330Z,73.61
2023-02-07T17:03:35.112Z,73.52
2023-02-07T17:06:38.396Z,73.62
2023-02-07T17:09:41.119Z,73.66
2023-02-07T17:12:43.713Z,74.01
2023-02-07T17:15:48.342Z,73.95
2023-02-07T17:18:51.656Z,73.95
2023-02-07T17:21:54.437Z,74.09
2023-02-07T17:24:59.660Z,74.41
2023-02-07T17:28:02.500Z,74.40
2023-02-07T17:31:05.388Z,74.29
2023-02-07T17:34:08.610Z,74.41
2023-02-07T17:37:12.188Z,74.32
2023-02-07T17:40:23.611Z,74.54
2023-02-07T17:43:26.326Z,74.71
2023-02-07T17:46:29.062Z,75.00
2023-02-07T17:49:31.730Z,74.84
2023-02-07T17:52:35.033Z,74.75
2023-02-07T17:55:38.153Z,75.13
2023-02-07T17:58:40.903Z,75.10
2023-02-07T18:01:43.605Z,75.08
2023-02-07T18:04:46.295Z,75.13
2023-02-07T18:07:51.634Z,75.45
2023-02-07T18:10:55.199Z,75.08
2023-02-07T18:13:57.894Z,74.76
2023-02-07T18:17:00.534Z,74.34
2023-02-07T18:20:04.734Z,74.29
2023-02-07T18:23:07.593Z,74.11
2023-02-07T18:26:15.173Z,74.07
2023-02-07T18:29:18.106Z,74.16
2023-02-07T18:32:20.884Z,74.23
2023-02-07T18:35:23.663Z,74.28
2023-02-07T18:38:26.389Z,74.32
2023-02-07T18:41:29.024Z,74.48
2023-02-07T18:44:31.992Z,74.42
2023-02-07T18:47:34.627Z,74.52
2023-02-07T18:50:41.694Z,74.74
2023-02-07T18:53:44.610Z,74.67
2023-02-07T18:56:52.498Z,74.84
2023-02-07T18:59:55.199Z,74.89
2023-02-07T19:02:57.908Z,75.28
2023-02-07T19:06:01.749Z,75.34
2023-02-07T19:09:04.419Z,75.41
2023-02-07T19:12:09.244Z,75.35
2023-02-07T19:15:12.640Z,75.57
2023-02-07T19:18:15.411Z,75.53
2023-02-07T19:21:26.167Z,75.58
2023-02-07T19:24:28.914Z,75.75
2023-02-07T19:27:31.665Z,75.83
2023-02-07T19:30:39.064Z,75.58
2023-02-07T19:33:42.015Z,75.16
2023-02-07T19:36:44.948Z,75.02
2023-02-07T19:39:49.150Z,74.83
2023-02-07T19:42:51.839Z,74.58
2023-02-07T19:45:54.622Z,74.51
2023-02-07T19:49:00.268Z,74.69
2023-02-07T19:52:02.963Z,74.69
2023-02-07T19:55:05.792Z,74.71
2023-02-07T19:58:08.595Z,74.90
2023-02-07T20:01:11.673Z,75.02
2023-02-07T20:04:14.376Z,75.24
2023-02-07T20:07:17.164Z,75.22
2023-02-07T20:10:20.219Z,75.18
2023-02-07T20:13:22.825Z,75.31
2023-02-07T20:16:26.723Z,75.37
2023-02-07T20:19:29.617Z,75.34
2023-02-07T20:22:32.746Z,75.45
2023-02-07T20:25:39.252Z,75.67
2023-02-07T20:28:41.905Z,75.69
2023-02-07T20:31:46.097Z,75.70
2023-02-07T20:34:48.932Z,75.81
2023-02-07T20:37:51.740Z,75.97
2023-02-07T20:40:56.525Z,76.07
2023-02-07T20:44:03.635Z,76.25
2023-02-07T20:47:09.669Z,75.98
2023-02-07T20:50:12.411Z,76.15
2023-02-07T20:53:15.057Z,76.28
2023-02-07T20:56:18.122Z,76.30
2023-02-07T20:59:25.248Z,76.38
2023-02-07T21:02:27.961Z,76.21
2023-02-07T21:05:33.340Z,75.90
2023-02-07T21:08:36.397Z,75.60
2023-02-07T21:11:41.596Z,75.21
2023-02-07T21:14:44.319Z,75.00
2023-02-07T21:17:46.983Z,74.91
2023-02-07T21:20:50.112Z,74.82
2023-02-07T21:23:54.731Z,75.01
2023-02-07T21:26:57.886Z,75.26
2023-02-07T21:30:00.725Z,75.07
2023-02-07T21:33:04.224Z,75.26
2023-02-07T21:36:09.388Z,75.20
2023-02-07T21:39:12.732Z,75.60
2023-02-07T21:42:15.623Z,75.53
2023-02-07T21:45:18.694Z,75.68
2023-02-07T21:48:22.388Z,75.69
2023-02-07T21:51:25.966Z,75.72
2023-02-07T21:54:28.785Z,75.70
2023-02-07T21:57:31.484Z,75.77
2023-02-07T22:00:34.102Z,75.86
2023-02-07T22:03:37.913Z,76.05
2023-02-07T22:06:42.290Z,76.07
2023-02-07T22:09:45.031Z,76.27
2023-02-07T22:12:47.642Z,76.18
2023-02-07T22:15:51.022Z,76.25
2023-02-07T22:18:54.644Z,76.38
2023-02-07T22:21:58.966Z,76.40
2023-02-07T22:25:01.893Z,76.21
2023-02-07T22:28:04.695Z,76.21
2023-02-07T22:31:11.386Z,76.30
2023-02-07T22:34:15.491Z,75.84
2023-02-07T22:37:18.152Z,75.45
2023-02-07T22:40:20.841Z,75.11
2023-02-07T22:43:23.595Z,74.80
2023-02-07T22:46:26.267Z,74.71
2023-02-07T22:49:29.043Z,74.85
2023-02-07T22:52:33.197Z,75.02
2023-02-07T22:55:36.007Z,75.07
2023-02-07T22:58:39.871Z,75.16
2023-02-07T23:01:42.996Z,75.20
2023-02-07T23:04:45.646Z,75.21
2023-02-07T23:07:48.453Z,75.17
2023-02-07T23:10:51.113Z,75.30
2023-02-07T23:13:54.118Z,75.46
2023-02-07T23:16:56.772Z,75.64
2023-02-07T23:19:59.401Z,75.53
2023-02-07T23:23:02.094Z,75.67
2023-02-07T23:26:08.892Z,75.75
2023-02-07T23:29:11.520Z,76.09
2023-02-07T23:32:16.463Z,76.08
2023-02-07T23:35:19.172Z,75.99
2023-02-07T23:38:21.836Z,75.91
2023-02-07T23:41:24.523Z,76.14
2023-02-07T23:44:27.188Z,76.10
2023-02-07T23:47:29.867Z,76.07
2023-02-07T23:50:32.755Z,76.22
2023-02-07T23:53:35.516Z,76.26
2023-02-07T23:56:38.494Z,76.34
2023-02-07T23:59:41.134Z,76.33
